Wilkes Barre, Pennsylvania
Current Conditions -  °F | °C
As of 4:54 AM on Friday 31 Oct 2014 (Local Time) from KAVP Reporting Station
Clear Clear  
Wind Chill: 31°   Ceiling: Unl
Heat Index: 31°   Visibility: 10mi
Dew Point: 28°   Wind: 3mph
Humidity: 89%   Direction: 160°SSE
Pressure: 30.01"   Gusts: NA
Location:  41.2036°N, 75.8843°W
Report Text: KAVP 310854Z AUTO 16003KT 10SM CLR M01/M02 A3001 RMK AO2 SLP168 T10061022 55002
Loading
Personal Weather Stations






























Interactive Weather Map
Tropical Storm Tracking
New forecast layout! Learn more

10-Day Weather Forecast

Advertisements
Track Severe Weather on mobile